Maury, NC (28554)

2:27 AM EST on January 27, 2015 (GMT -0500)
APRSWXNET Winterville NC US | Change Station
CLOSE
Current Station
Personal Weather Station
Location: Bellarthur, NC
Elevation: 104 ft
Nearby Weather Stations

Elev 104 ft 35.55 °N, 77.45 °W | Updated 23 minutes ago

Overcast
Overcast
39 °F
Feels Like 39 °F
N
3
Wind Variable Wind from NNW
Gusts 7.0 mph

Today
High -- | Low -- °F
--% Chance of Precip.
Yesterday
High -- | Low -- °F
Precip. -- in
7:13 AM 5:32 PM
Waxing Crescent, 51% visible
Pressure 29.68 in
Visibility 10.0 miles
Clouds Overcast 1700 ft
Windchill 39 °F
Dew Point 35 °F
Humidity 86%
Rainfall 0.00 in
Snow Depth Not available.
UV 0 out of 12
Pollen .40 out of 12
Air Quality Not available.
Flu Activity Not available.
METAR KISO 270715Z AUTO 34011G14KT 10SM OVC017 06/02 A2968 RMK AO2 T00570024

More Conditions Fewer Conditions

Pressure 29.68 in
Visibility 10.0 miles
Clouds Overcast 1700 ft
Windchill 39 °F
Dew Point 35 °F
Humidity 86%
Rainfall 0.00 in
Snow Depth Not available.
UV 0 out of 12
Pollen .40 out of 12
Air Quality Not available.
Flu Activity Not available.
METAR KISO 270715Z AUTO 34011G14KT 10SM OVC017 06/02 A2968 RMK AO2 T00570024

More Conditions Fewer Conditions

10-Day Weather Forecast

Almanac

Astronomy

Jan. 27, 2015 Rise Set
Actual Time
Civil Twilight
Nautical Twilight
Astronomical Twilight
Moon
Length of Visible Light
Length of Day
Tomorrow will be .
, % of the Moon is Illuminated

Today's Extremes

State Highs State Lows

Community

WunderPhotos

Upload Photos

1,790,543 photos uploaded!

WunderBlogs® & News

Nearby

Air Quality

  Air Quality AQ Index Pollutant
Not available.

Snow Depth

Station Depth Elevation

Earthquake Activity

City Distance Mag. Time & Date
Minimum magnitude displayed is 2.5.

Coastal Water Temperatures

Place Temperature

Nearby Weather Stations